Catawba, Virginia
Current Conditions -  °F | °C
As of 2:54 AM on Tuesday 27 Jan 2015 (Local Time) from KROA Reporting Station
Clear Clear  
Wind Chill: 17°   Ceiling: Unl
Heat Index: 28°   Visibility: 10mi
Dew Point: 16°   Wind: 13mph
Humidity: 61%   Direction: 310°NW
Pressure: 29.77"   Gusts: NA
Location:  37.38°N, 80.11°W
Report Text: KROA 270754Z 31011KT 10SM CLR M02/M09 A2977 RMK AO2 SLP085 T10221089
Loading
Personal Weather Stations






























Interactive Weather Map New forecast layout! Learn more

10-Day Weather Forecast

Advertisements
Track Severe Weather on mobile